sensor_id;sensor_type;location;lat;lon;timestamp;P1;durP1;ratioP1;P2;durP2;ratioP2
51578;SDS011;47998;53.242;6.386;2023-03-12T00:00:48;11.77;;;6.77;;
51578;SDS011;47998;53.242;6.386;2023-03-12T00:03:14;16.87;;;7.97;;
51578;SDS011;47998;53.242;6.386;2023-03-12T00:05:41;17.87;;;7.40;;
51578;SDS011;47998;53.242;6.386;2023-03-12T00:08:07;12.57;;;6.77;;
51578;SDS011;47998;53.242;6.386;2023-03-12T00:10:34;14.63;;;6.80;;
51578;SDS011;47998;53.242;6.386;2023-03-12T00:13:05;13.30;;;6.40;;
51578;SDS011;47998;53.242;6.386;2023-03-12T00:15:31;11.90;;;5.83;;
51578;SDS011;47998;53.242;6.386;2023-03-12T00:18:01;13.00;;;5.73;;
51578;SDS011;47998;53.242;6.386;2023-03-12T00:20:26;10.87;;;5.57;;
51578;SDS011;47998;53.242;6.386;2023-03-12T00:22:52;10.63;;;5.17;;
51578;SDS011;47998;53.242;6.386;2023-03-12T00:25:20;15.97;;;6.77;;
51578;SDS011;47998;53.242;6.386;2023-03-12T00:27:46;13.07;;;6.37;;
51578;SDS011;47998;53.242;6.386;2023-03-12T00:30:13;13.77;;;6.57;;
51578;SDS011;47998;53.242;6.386;2023-03-12T00:32:38;13.63;;;5.97;;
51578;SDS011;47998;53.242;6.386;2023-03-12T00:35:06;13.07;;;6.07;;
51578;SDS011;47998;53.242;6.386;2023-03-12T00:37:32;15.03;;;5.87;;
51578;SDS011;47998;53.242;6.386;2023-03-12T00:39:58;12.50;;;6.07;;
51578;SDS011;47998;53.242;6.386;2023-03-12T00:42:26;11.87;;;6.70;;
51578;SDS011;47998;53.242;6.386;2023-03-12T00:44:52;18.23;;;6.63;;
51578;SDS011;47998;53.242;6.386;2023-03-12T00:47:18;17.27;;;6.87;;
51578;SDS011;47998;53.242;6.386;2023-03-12T00:49:44;11.67;;;6.77;;
51578;SDS011;47998;53.242;6.386;2023-03-12T00:52:10;13.73;;;7.10;;
51578;SDS011;47998;53.242;6.386;2023-03-12T00:54:35;12.00;;;6.73;;
51578;SDS011;47998;53.242;6.386;2023-03-12T00:57:01;15.47;;;7.43;;
51578;SDS011;47998;53.242;6.386;2023-03-12T00:59:27;16.17;;;7.10;;
51578;SDS011;47998;53.242;6.386;2023-03-12T01:01:53;16.87;;;6.90;;
51578;SDS011;47998;53.242;6.386;2023-03-12T01:04:19;15.77;;;6.97;;
51578;SDS011;47998;53.242;6.386;2023-03-12T01:06:45;12.90;;;6.60;;
51578;SDS011;47998;53.242;6.386;2023-03-12T01:09:11;16.83;;;6.97;;
51578;SDS011;47998;53.242;6.386;2023-03-12T01:11:37;15.40;;;7.70;;
51578;SDS011;47998;53.242;6.386;2023-03-12T01:14:03;16.70;;;6.73;;
51578;SDS011;47998;53.242;6.386;2023-03-12T01:16:30;16.07;;;7.03;;
51578;SDS011;47998;53.242;6.386;2023-03-12T01:18:56;13.87;;;7.30;;
51578;SDS011;47998;53.242;6.386;2023-03-12T01:21:24;17.00;;;7.50;;
51578;SDS011;47998;53.242;6.386;2023-03-12T01:23:50;15.63;;;7.60;;
51578;SDS011;47998;53.242;6.386;2023-03-12T01:26:16;15.43;;;7.50;;
51578;SDS011;47998;53.242;6.386;2023-03-12T01:28:42;14.07;;;7.70;;
51578;SDS011;47998;53.242;6.386;2023-03-12T01:31:09;17.70;;;7.60;;
51578;SDS011;47998;53.242;6.386;2023-03-12T01:33:37;16.50;;;7.60;;
51578;SDS011;47998;53.242;6.386;2023-03-12T01:36:04;21.00;;;8.10;;
51578;SDS011;47998;53.242;6.386;2023-03-12T01:38:36;16.42;;;7.85;;
51578;SDS011;47998;53.242;6.386;2023-03-12T01:41:02;13.50;;;7.13;;
51578;SDS011;47998;53.242;6.386;2023-03-12T01:54:20;18.97;;;8.87;;
51578;SDS011;47998;53.242;6.386;2023-03-12T01:56:54;16.43;;;8.70;;
51578;SDS011;47998;53.242;6.386;2023-03-12T01:59:26;21.17;;;9.27;;
51578;SDS011;47998;53.242;6.386;2023-03-12T02:01:59;16.10;;;7.90;;
51578;SDS011;47998;53.242;6.386;2023-03-12T02:04:26;13.90;;;8.07;;
51578;SDS011;47998;53.242;6.386;2023-03-12T02:09:46;13.47;;;7.77;;
51578;SDS011;47998;53.242;6.386;2023-03-12T02:12:13;20.02;;;7.93;;
51578;SDS011;47998;53.242;6.386;2023-03-12T02:14:40;14.27;;;8.13;;
51578;SDS011;47998;53.242;6.386;2023-03-12T02:17:07;12.80;;;7.70;;
51578;SDS011;47998;53.242;6.386;2023-03-12T02:22:24;18.23;;;8.00;;
51578;SDS011;47998;53.242;6.386;2023-03-12T02:27:28;16.60;;;7.90;;
51578;SDS011;47998;53.242;6.386;2023-03-12T02:30:00;15.27;;;6.80;;
51578;SDS011;47998;53.242;6.386;2023-03-12T02:32:29;14.50;;;6.90;;
51578;SDS011;47998;53.242;6.386;2023-03-12T02:35:00;16.17;;;6.73;;
51578;SDS011;47998;53.242;6.386;2023-03-12T02:37:27;17.43;;;8.17;;
51578;SDS011;47998;53.242;6.386;2023-03-12T02:39:59;15.77;;;6.60;;
51578;SDS011;47998;53.242;6.386;2023-03-12T02:42:51;17.00;;;6.87;;
51578;SDS011;47998;53.242;6.386;2023-03-12T02:45:17;12.00;;;5.93;;
51578;SDS011;47998;53.242;6.386;2023-03-12T02:47:44;9.60;;;6.43;;
51578;SDS011;47998;53.242;6.386;2023-03-12T02:50:09;12.43;;;7.03;;
51578;SDS011;47998;53.242;6.386;2023-03-12T02:52:37;12.20;;;6.73;;
51578;SDS011;47998;53.242;6.386;2023-03-12T02:55:05;14.70;;;5.73;;
51578;SDS011;47998;53.242;6.386;2023-03-12T02:57:32;11.67;;;6.13;;
51578;SDS011;47998;53.242;6.386;2023-03-12T03:00:02;14.50;;;6.40;;
51578;SDS011;47998;53.242;6.386;2023-03-12T03:02:31;11.97;;;5.73;;
51578;SDS011;47998;53.242;6.386;2023-03-12T03:04:57;11.10;;;6.00;;
51578;SDS011;47998;53.242;6.386;2023-03-12T03:07:23;9.90;;;6.23;;
51578;SDS011;47998;53.242;6.386;2023-03-12T03:09:49;12.47;;;5.50;;
51578;SDS011;47998;53.242;6.386;2023-03-12T03:12:15;12.07;;;5.63;;
51578;SDS011;47998;53.242;6.386;2023-03-12T03:14:41;9.83;;;5.10;;
51578;SDS011;47998;53.242;6.386;2023-03-12T03:17:06;10.00;;;5.43;;
51578;SDS011;47998;53.242;6.386;2023-03-12T03:19:32;11.23;;;5.83;;
51578;SDS011;47998;53.242;6.386;2023-03-12T03:21:58;9.47;;;5.57;;
51578;SDS011;47998;53.242;6.386;2023-03-12T03:24:24;9.00;;;5.43;;
51578;SDS011;47998;53.242;6.386;2023-03-12T03:26:49;11.67;;;5.50;;
51578;SDS011;47998;53.242;6.386;2023-03-12T03:29:15;9.57;;;4.67;;
51578;SDS011;47998;53.242;6.386;2023-03-12T03:31:41;8.57;;;5.00;;
51578;SDS011;47998;53.242;6.386;2023-03-12T03:34:07;8.10;;;5.03;;
51578;SDS011;47998;53.242;6.386;2023-03-12T03:36:33;8.07;;;4.87;;
51578;SDS011;47998;53.242;6.386;2023-03-12T03:38:58;6.83;;;4.90;;
51578;SDS011;47998;53.242;6.386;2023-03-12T03:41:24;8.73;;;4.67;;
51578;SDS011;47998;53.242;6.386;2023-03-12T03:43:54;9.47;;;4.63;;
51578;SDS011;47998;53.242;6.386;2023-03-12T03:46:21;16.00;;;6.23;;
51578;SDS011;47998;53.242;6.386;2023-03-12T03:48:49;12.43;;;5.30;;
51578;SDS011;47998;53.242;6.386;2023-03-12T03:51:15;13.80;;;5.47;;
51578;SDS011;47998;53.242;6.386;2023-03-12T03:53:41;8.53;;;5.17;;
51578;SDS011;47998;53.242;6.386;2023-03-12T03:56:08;8.00;;;4.60;;
51578;SDS011;47998;53.242;6.386;2023-03-12T03:58:36;12.53;;;5.50;;
51578;SDS011;47998;53.242;6.386;2023-03-12T04:01:02;9.40;;;4.93;;
51578;SDS011;47998;53.242;6.386;2023-03-12T04:03:28;9.93;;;4.47;;
51578;SDS011;47998;53.242;6.386;2023-03-12T04:05:58;9.20;;;5.33;;
51578;SDS011;47998;53.242;6.386;2023-03-12T04:08:25;9.97;;;4.63;;
51578;SDS011;47998;53.242;6.386;2023-03-12T04:10:51;10.23;;;4.40;;
51578;SDS011;47998;53.242;6.386;2023-03-12T04:13:17;8.53;;;4.20;;
51578;SDS011;47998;53.242;6.386;2023-03-12T04:15:48;8.80;;;4.63;;
51578;SDS011;47998;53.242;6.386;2023-03-12T04:18:16;10.60;;;4.37;;
51578;SDS011;47998;53.242;6.386;2023-03-12T04:20:43;6.87;;;4.27;;
51578;SDS011;47998;53.242;6.386;2023-03-12T04:23:09;7.67;;;4.27;;
51578;SDS011;47998;53.242;6.386;2023-03-12T04:25:36;8.07;;;4.50;;
51578;SDS011;47998;53.242;6.386;2023-03-12T04:28:03;10.63;;;4.33;;
51578;SDS011;47998;53.242;6.386;2023-03-12T04:30:29;9.17;;;3.70;;
51578;SDS011;47998;53.242;6.386;2023-03-12T04:32:55;9.57;;;4.63;;
51578;SDS011;47998;53.242;6.386;2023-03-12T04:35:20;7.27;;;4.00;;
51578;SDS011;47998;53.242;6.386;2023-03-12T04:37:46;8.27;;;4.00;;
51578;SDS011;47998;53.242;6.386;2023-03-12T04:40:12;9.97;;;4.13;;
51578;SDS011;47998;53.242;6.386;2023-03-12T04:42:39;5.87;;;3.40;;
51578;SDS011;47998;53.242;6.386;2023-03-12T04:45:06;9.00;;;3.63;;
51578;SDS011;47998;53.242;6.386;2023-03-12T04:47:32;7.23;;;3.57;;
51578;SDS011;47998;53.242;6.386;2023-03-12T04:49:58;7.03;;;3.80;;
51578;SDS011;47998;53.242;6.386;2023-03-12T04:52:25;9.47;;;3.93;;
51578;SDS011;47998;53.242;6.386;2023-03-12T04:54:51;10.80;;;3.80;;
51578;SDS011;47998;53.242;6.386;2023-03-12T04:57:18;10.17;;;4.10;;
51578;SDS011;47998;53.242;6.386;2023-03-12T04:59:44;8.03;;;3.93;;
51578;SDS011;47998;53.242;6.386;2023-03-12T05:02:10;6.67;;;3.63;;
51578;SDS011;47998;53.242;6.386;2023-03-12T05:04:36;6.80;;;3.47;;
51578;SDS011;47998;53.242;6.386;2023-03-12T05:07:01;7.53;;;3.40;;
51578;SDS011;47998;53.242;6.386;2023-03-12T05:09:27;9.10;;;3.63;;
51578;SDS011;47998;53.242;6.386;2023-03-12T05:11:53;10.60;;;3.60;;
51578;SDS011;47998;53.242;6.386;2023-03-12T05:14:19;6.63;;;3.70;;
51578;SDS011;47998;53.242;6.386;2023-03-12T05:16:45;20.50;;;3.90;;
51578;SDS011;47998;53.242;6.386;2023-03-12T05:19:12;6.27;;;3.33;;
51578;SDS011;47998;53.242;6.386;2023-03-12T05:21:41;6.03;;;3.60;;
51578;SDS011;47998;53.242;6.386;2023-03-12T05:24:08;6.53;;;3.10;;
51578;SDS011;47998;53.242;6.386;2023-03-12T05:26:34;8.67;;;2.97;;
51578;SDS011;47998;53.242;6.386;2023-03-12T05:29:01;7.43;;;3.43;;
51578;SDS011;47998;53.242;6.386;2023-03-12T05:31:28;8.63;;;3.30;;
51578;SDS011;47998;53.242;6.386;2023-03-12T05:33:57;7.93;;;3.40;;
51578;SDS011;47998;53.242;6.386;2023-03-12T05:36:24;7.17;;;3.20;;
51578;SDS011;47998;53.242;6.386;2023-03-12T05:38:50;9.13;;;4.23;;
51578;SDS011;47998;53.242;6.386;2023-03-12T05:41:20;7.57;;;3.40;;
51578;SDS011;47998;53.242;6.386;2023-03-12T05:43:51;10.37;;;3.73;;
51578;SDS011;47998;53.242;6.386;2023-03-12T05:46:18;8.17;;;3.27;;
51578;SDS011;47998;53.242;6.386;2023-03-12T05:48:44;8.67;;;4.03;;
51578;SDS011;47998;53.242;6.386;2023-03-12T05:51:10;5.47;;;3.80;;
51578;SDS011;47998;53.242;6.386;2023-03-12T05:53:36;10.47;;;3.90;;
51578;SDS011;47998;53.242;6.386;2023-03-12T05:56:06;5.57;;;3.47;;
51578;SDS011;47998;53.242;6.386;2023-03-12T05:58:35;9.73;;;3.38;;
51578;SDS011;47998;53.242;6.386;2023-03-12T06:01:02;7.17;;;2.87;;
51578;SDS011;47998;53.242;6.386;2023-03-12T06:03:35;9.87;;;3.47;;
51578;SDS011;47998;53.242;6.386;2023-03-12T06:06:01;8.87;;;3.47;;
51578;SDS011;47998;53.242;6.386;2023-03-12T06:08:27;10.97;;;3.20;;
51578;SDS011;47998;53.242;6.386;2023-03-12T06:10:52;7.87;;;3.47;;
51578;SDS011;47998;53.242;6.386;2023-03-12T06:13:22;6.53;;;3.23;;
51578;SDS011;47998;53.242;6.386;2023-03-12T06:15:49;6.43;;;3.10;;
51578;SDS011;47998;53.242;6.386;2023-03-12T06:18:15;6.57;;;3.63;;
51578;SDS011;47998;53.242;6.386;2023-03-12T06:20:41;6.13;;;2.97;;
51578;SDS011;47998;53.242;6.386;2023-03-12T06:23:06;10.77;;;3.70;;
51578;SDS011;47998;53.242;6.386;2023-03-12T06:25:32;8.20;;;3.47;;
51578;SDS011;47998;53.242;6.386;2023-03-12T06:27:58;7.50;;;3.83;;
51578;SDS011;47998;53.242;6.386;2023-03-12T06:30:24;8.10;;;3.67;;
51578;SDS011;47998;53.242;6.386;2023-03-12T06:32:51;11.33;;;4.00;;
51578;SDS011;47998;53.242;6.386;2023-03-12T06:35:17;7.23;;;4.37;;
51578;SDS011;47998;53.242;6.386;2023-03-12T06:37:43;13.47;;;5.60;;
51578;SDS011;47998;53.242;6.386;2023-03-12T06:40:09;12.03;;;3.83;;
51578;SDS011;47998;53.242;6.386;2023-03-12T06:42:37;8.20;;;3.87;;
51578;SDS011;47998;53.242;6.386;2023-03-12T06:45:03;8.80;;;3.80;;
51578;SDS011;47998;53.242;6.386;2023-03-12T06:47:29;7.77;;;3.90;;
51578;SDS011;47998;53.242;6.386;2023-03-12T06:49:55;6.60;;;3.57;;
51578;SDS011;47998;53.242;6.386;2023-03-12T06:52:21;8.03;;;4.00;;
51578;SDS011;47998;53.242;6.386;2023-03-12T06:54:47;8.90;;;3.97;;
51578;SDS011;47998;53.242;6.386;2023-03-12T06:57:13;6.97;;;3.20;;
51578;SDS011;47998;53.242;6.386;2023-03-12T06:59:40;14.00;;;4.23;;
51578;SDS011;47998;53.242;6.386;2023-03-12T07:02:08;8.70;;;3.93;;
51578;SDS011;47998;53.242;6.386;2023-03-12T07:04:36;6.80;;;3.70;;
51578;SDS011;47998;53.242;6.386;2023-03-12T07:07:02;9.97;;;4.17;;
51578;SDS011;47998;53.242;6.386;2023-03-12T07:09:29;9.20;;;4.50;;
51578;SDS011;47998;53.242;6.386;2023-03-12T07:11:54;11.43;;;4.00;;
51578;SDS011;47998;53.242;6.386;2023-03-12T07:14:20;9.47;;;4.77;;
51578;SDS011;47998;53.242;6.386;2023-03-12T07:16:46;10.20;;;4.77;;
51578;SDS011;47998;53.242;6.386;2023-03-12T07:19:13;8.90;;;5.20;;
51578;SDS011;47998;53.242;6.386;2023-03-12T07:21:39;8.83;;;5.37;;
51578;SDS011;47998;53.242;6.386;2023-03-12T07:24:05;15.53;;;6.40;;
51578;SDS011;47998;53.242;6.386;2023-03-12T07:26:33;9.10;;;4.63;;
51578;SDS011;47998;53.242;6.386;2023-03-12T07:29:00;14.10;;;6.07;;
51578;SDS011;47998;53.242;6.386;2023-03-12T07:31:27;11.37;;;6.13;;
51578;SDS011;47998;53.242;6.386;2023-03-12T07:33:53;13.53;;;7.07;;
51578;SDS011;47998;53.242;6.386;2023-03-12T07:36:19;14.97;;;6.90;;
51578;SDS011;47998;53.242;6.386;2023-03-12T07:38:44;14.80;;;6.47;;
51578;SDS011;47998;53.242;6.386;2023-03-12T07:41:10;14.90;;;8.40;;
51578;SDS011;47998;53.242;6.386;2023-03-12T07:43:36;21.43;;;9.70;;
51578;SDS011;47998;53.242;6.386;2023-03-12T07:46:02;17.73;;;8.30;;
51578;SDS011;47998;53.242;6.386;2023-03-12T07:48:27;16.33;;;8.60;;
51578;SDS011;47998;53.242;6.386;2023-03-12T07:50:53;17.77;;;9.47;;
51578;SDS011;47998;53.242;6.386;2023-03-12T07:53:19;19.77;;;9.60;;
51578;SDS011;47998;53.242;6.386;2023-03-12T07:55:45;22.07;;;10.63;;
51578;SDS011;47998;53.242;6.386;2023-03-12T07:58:11;18.37;;;11.27;;
51578;SDS011;47998;53.242;6.386;2023-03-12T08:00:37;20.53;;;11.37;;
51578;SDS011;47998;53.242;6.386;2023-03-12T08:03:03;17.50;;;11.03;;
51578;SDS011;47998;53.242;6.386;2023-03-12T08:05:30;16.93;;;11.73;;
51578;SDS011;47998;53.242;6.386;2023-03-12T08:07:55;17.83;;;11.07;;
51578;SDS011;47998;53.242;6.386;2023-03-12T08:10:22;21.13;;;12.90;;
51578;SDS011;47998;53.242;6.386;2023-03-12T08:12:48;22.93;;;11.67;;
51578;SDS011;47998;53.242;6.386;2023-03-12T08:15:14;20.33;;;11.97;;
51578;SDS011;47998;53.242;6.386;2023-03-12T08:17:40;20.70;;;12.40;;
51578;SDS011;47998;53.242;6.386;2023-03-12T08:20:06;25.00;;;13.70;;
51578;SDS011;47998;53.242;6.386;2023-03-12T08:22:34;22.20;;;13.57;;
51578;SDS011;47998;53.242;6.386;2023-03-12T08:25:01;19.53;;;13.27;;
51578;SDS011;47998;53.242;6.386;2023-03-12T08:27:27;22.10;;;13.33;;
51578;SDS011;47998;53.242;6.386;2023-03-12T08:29:53;22.83;;;13.70;;
51578;SDS011;47998;53.242;6.386;2023-03-12T08:32:18;20.20;;;13.37;;
51578;SDS011;47998;53.242;6.386;2023-03-12T08:34:44;21.07;;;13.70;;
51578;SDS011;47998;53.242;6.386;2023-03-12T08:37:10;19.47;;;13.27;;
51578;SDS011;47998;53.242;6.386;2023-03-12T08:39:37;25.90;;;15.20;;
51578;SDS011;47998;53.242;6.386;2023-03-12T08:42:03;25.97;;;14.07;;
51578;SDS011;47998;53.242;6.386;2023-03-12T08:44:29;20.47;;;13.53;;
51578;SDS011;47998;53.242;6.386;2023-03-12T08:46:55;22.63;;;13.03;;
51578;SDS011;47998;53.242;6.386;2023-03-12T08:49:21;21.73;;;14.43;;
51578;SDS011;47998;53.242;6.386;2023-03-12T08:51:48;23.50;;;13.23;;
51578;SDS011;47998;53.242;6.386;2023-03-12T08:54:16;26.63;;;13.60;;
51578;SDS011;47998;53.242;6.386;2023-03-12T08:56:42;17.13;;;12.30;;
51578;SDS011;47998;53.242;6.386;2023-03-12T08:59:10;16.40;;;11.27;;
51578;SDS011;47998;53.242;6.386;2023-03-12T09:01:37;15.00;;;11.30;;
51578;SDS011;47998;53.242;6.386;2023-03-12T09:04:04;18.80;;;12.63;;
51578;SDS011;47998;53.242;6.386;2023-03-12T09:06:30;19.77;;;12.70;;
51578;SDS011;47998;53.242;6.386;2023-03-12T09:08:57;15.13;;;11.30;;
51578;SDS011;47998;53.242;6.386;2023-03-12T09:11:29;17.10;;;11.57;;
51578;SDS011;47998;53.242;6.386;2023-03-12T09:13:56;22.43;;;13.80;;
51578;SDS011;47998;53.242;6.386;2023-03-12T09:16:23;20.10;;;12.07;;
51578;SDS011;47998;53.242;6.386;2023-03-12T09:18:49;24.83;;;13.20;;
51578;SDS011;47998;53.242;6.386;2023-03-12T09:21:15;20.87;;;11.30;;
51578;SDS011;47998;53.242;6.386;2023-03-12T09:23:40;23.23;;;14.23;;
51578;SDS011;47998;53.242;6.386;2023-03-12T09:26:10;19.73;;;13.47;;
51578;SDS011;47998;53.242;6.386;2023-03-12T09:28:36;20.80;;;14.13;;
51578;SDS011;47998;53.242;6.386;2023-03-12T09:31:05;22.70;;;15.20;;
51578;SDS011;47998;53.242;6.386;2023-03-12T09:33:31;26.00;;;14.30;;
51578;SDS011;47998;53.242;6.386;2023-03-12T09:36:00;23.67;;;15.23;;
51578;SDS011;47998;53.242;6.386;2023-03-12T09:38:26;21.07;;;14.90;;
51578;SDS011;47998;53.242;6.386;2023-03-12T09:40:52;25.50;;;16.90;;
51578;SDS011;47998;53.242;6.386;2023-03-12T09:43:31;23.67;;;17.00;;
51578;SDS011;47998;53.242;6.386;2023-03-12T09:46:14;23.50;;;15.48;;
51578;SDS011;47998;53.242;6.386;2023-03-12T09:48:46;23.80;;;15.33;;
51578;SDS011;47998;53.242;6.386;2023-03-12T09:51:19;22.67;;;16.77;;
51578;SDS011;47998;53.242;6.386;2023-03-12T09:53:53;16.87;;;12.50;;
51578;SDS011;47998;53.242;6.386;2023-03-12T09:56:22;19.67;;;14.90;;
51578;SDS011;47998;53.242;6.386;2023-03-12T09:58:50;21.20;;;16.23;;
51578;SDS011;47998;53.242;6.386;2023-03-12T10:18:07;20.83;;;15.33;;
51578;SDS011;47998;53.242;6.386;2023-03-12T10:23:21;24.63;;;16.23;;
51578;SDS011;47998;53.242;6.386;2023-03-12T10:28:50;22.67;;;15.13;;
51578;SDS011;47998;53.242;6.386;2023-03-12T10:31:22;15.10;;;10.30;;
51578;SDS011;47998;53.242;6.386;2023-03-12T10:33:59;19.60;;;13.43;;
51578;SDS011;47998;53.242;6.386;2023-03-12T10:39:19;30.77;;;16.85;;
51578;SDS011;47998;53.242;6.386;2023-03-12T10:41:46;21.20;;;15.03;;
51578;SDS011;47998;53.242;6.386;2023-03-12T10:44:17;26.43;;;16.17;;
51578;SDS011;47998;53.242;6.386;2023-03-12T10:49:43;26.70;;;17.27;;
51578;SDS011;47998;53.242;6.386;2023-03-12T10:52:15;21.13;;;13.37;;
51578;SDS011;47998;53.242;6.386;2023-03-12T10:54:44;23.65;;;15.68;;
51578;SDS011;47998;53.242;6.386;2023-03-12T10:57:17;20.38;;;12.75;;
51578;SDS011;47998;53.242;6.386;2023-03-12T10:59:46;18.90;;;13.30;;
51578;SDS011;47998;53.242;6.386;2023-03-12T11:04:59;16.30;;;10.00;;
51578;SDS011;47998;53.242;6.386;2023-03-12T11:07:28;22.00;;;14.60;;
51578;SDS011;47998;53.242;6.386;2023-03-12T11:12:36;26.60;;;17.17;;
51578;SDS011;47998;53.242;6.386;2023-03-12T11:17:55;26.58;;;15.32;;
51578;SDS011;47998;53.242;6.386;2023-03-12T11:20:44;26.75;;;17.48;;
51578;SDS011;47998;53.242;6.386;2023-03-12T11:23:15;29.45;;;18.27;;
51578;SDS011;47998;53.242;6.386;2023-03-12T11:25:49;27.17;;;17.85;;
51578;SDS011;47998;53.242;6.386;2023-03-12T11:28:20;29.95;;;17.92;;
51578;SDS011;47998;53.242;6.386;2023-03-12T11:30:49;31.80;;;20.15;;
51578;SDS011;47998;53.242;6.386;2023-03-12T11:33:17;31.65;;;16.38;;
51578;SDS011;47998;53.242;6.386;2023-03-12T11:36:05;28.25;;;17.50;;
51578;SDS011;47998;53.242;6.386;2023-03-12T11:44:20;30.02;;;19.48;;
51578;SDS011;47998;53.242;6.386;2023-03-12T11:50:02;28.17;;;18.38;;
51578;SDS011;47998;53.242;6.386;2023-03-12T11:55:47;17.88;;;11.23;;
51578;SDS011;47998;53.242;6.386;2023-03-12T12:01:29;26.63;;;17.38;;
51578;SDS011;47998;53.242;6.386;2023-03-12T12:18:54;22.33;;;16.52;;
51578;SDS011;47998;53.242;6.386;2023-03-12T12:24:04;22.58;;;15.05;;
51578;SDS011;47998;53.242;6.386;2023-03-12T12:38:13;19.30;;;13.98;;
51578;SDS011;47998;53.242;6.386;2023-03-12T12:41:00;23.52;;;14.95;;
51578;SDS011;47998;53.242;6.386;2023-03-12T12:46:08;29.10;;;15.82;;
51578;SDS011;47998;53.242;6.386;2023-03-12T12:48:47;24.23;;;13.98;;
51578;SDS011;47998;53.242;6.386;2023-03-12T12:51:19;22.17;;;13.55;;
51578;SDS011;47998;53.242;6.386;2023-03-12T12:53:52;26.85;;;13.80;;
51578;SDS011;47998;53.242;6.386;2023-03-12T12:56:46;23.08;;;13.35;;
51578;SDS011;47998;53.242;6.386;2023-03-12T13:01:51;30.42;;;13.73;;
51578;SDS011;47998;53.242;6.386;2023-03-12T13:04:22;28.98;;;13.35;;
51578;SDS011;47998;53.242;6.386;2023-03-12T13:09:41;29.95;;;14.32;;
51578;SDS011;47998;53.242;6.386;2023-03-12T13:12:14;27.77;;;13.15;;
51578;SDS011;47998;53.242;6.386;2023-03-12T13:14:44;28.42;;;14.13;;
51578;SDS011;47998;53.242;6.386;2023-03-12T13:19:46;30.80;;;12.68;;
51578;SDS011;47998;53.242;6.386;2023-03-12T13:25:03;37.33;;;13.07;;
51578;SDS011;47998;53.242;6.386;2023-03-12T13:27:59;30.98;;;11.75;;
51578;SDS011;47998;53.242;6.386;2023-03-12T13:30:44;28.38;;;10.43;;
51578;SDS011;47998;53.242;6.386;2023-03-12T13:33:14;32.60;;;10.38;;
51578;SDS011;47998;53.242;6.386;2023-03-12T13:35:42;31.85;;;10.68;;
51578;SDS011;47998;53.242;6.386;2023-03-12T13:38:37;33.72;;;8.93;;
51578;SDS011;47998;53.242;6.386;2023-03-12T13:41:38;29.08;;;9.20;;
51578;SDS011;47998;53.242;6.386;2023-03-12T13:49:51;29.77;;;7.40;;
51578;SDS011;47998;53.242;6.386;2023-03-12T13:52:27;21.17;;;5.68;;
51578;SDS011;47998;53.242;6.386;2023-03-12T14:00:44;21.63;;;5.32;;
51578;SDS011;47998;53.242;6.386;2023-03-12T14:03:25;28.50;;;5.15;;
51578;SDS011;47998;53.242;6.386;2023-03-12T14:13:58;33.60;;;5.63;;
51578;SDS011;47998;53.242;6.386;2023-03-12T14:19:04;33.08;;;5.28;;
51578;SDS011;47998;53.242;6.386;2023-03-12T14:21:33;28.33;;;4.97;;
51578;SDS011;47998;53.242;6.386;2023-03-12T14:24:02;38.38;;;5.65;;
51578;SDS011;47998;53.242;6.386;2023-03-12T14:26:32;17.77;;;3.63;;
51578;SDS011;47998;53.242;6.386;2023-03-12T14:29:01;26.42;;;4.03;;
51578;SDS011;47998;53.242;6.386;2023-03-12T14:31:34;22.95;;;3.63;;
51578;SDS011;47998;53.242;6.386;2023-03-12T14:34:20;29.45;;;5.25;;
51578;SDS011;47998;53.242;6.386;2023-03-12T14:36:54;29.75;;;5.50;;
51578;SDS011;47998;53.242;6.386;2023-03-12T14:39:32;19.30;;;3.55;;
51578;SDS011;47998;53.242;6.386;2023-03-12T14:42:03;24.85;;;5.55;;
51578;SDS011;47998;53.242;6.386;2023-03-12T14:44:32;33.63;;;6.00;;
51578;SDS011;47998;53.242;6.386;2023-03-12T14:47:03;17.17;;;4.20;;
51578;SDS011;47998;53.242;6.386;2023-03-12T14:49:38;28.88;;;5.53;;
51578;SDS011;47998;53.242;6.386;2023-03-12T14:52:05;24.02;;;5.18;;
51578;SDS011;47998;53.242;6.386;2023-03-12T14:54:32;20.05;;;3.58;;
51578;SDS011;47998;53.242;6.386;2023-03-12T14:56:58;24.58;;;4.18;;
51578;SDS011;47998;53.242;6.386;2023-03-12T14:59:28;26.10;;;5.00;;
51578;SDS011;47998;53.242;6.386;2023-03-12T15:02:11;16.58;;;3.67;;
51578;SDS011;47998;53.242;6.386;2023-03-12T15:04:43;17.33;;;3.45;;
51578;SDS011;47998;53.242;6.386;2023-03-12T15:07:12;32.67;;;5.13;;
51578;SDS011;47998;53.242;6.386;2023-03-12T15:09:43;27.10;;;4.60;;
51578;SDS011;47998;53.242;6.386;2023-03-12T15:15:02;31.10;;;4.53;;
51578;SDS011;47998;53.242;6.386;2023-03-12T15:17:32;24.17;;;4.65;;
51578;SDS011;47998;53.242;6.386;2023-03-12T15:20:00;25.05;;;4.65;;
51578;SDS011;47998;53.242;6.386;2023-03-12T15:22:29;34.08;;;5.88;;
51578;SDS011;47998;53.242;6.386;2023-03-12T15:25:00;24.05;;;5.00;;
51578;SDS011;47998;53.242;6.386;2023-03-12T15:29:53;22.73;;;4.28;;
51578;SDS011;47998;53.242;6.386;2023-03-12T15:32:21;25.52;;;5.07;;
51578;SDS011;47998;53.242;6.386;2023-03-12T15:34:49;33.75;;;6.60;;
51578;SDS011;47998;53.242;6.386;2023-03-12T15:37:20;29.20;;;6.15;;
51578;SDS011;47998;53.242;6.386;2023-03-12T15:39:47;28.90;;;5.93;;
51578;SDS011;47998;53.242;6.386;2023-03-12T15:42:18;38.22;;;6.50;;
51578;SDS011;47998;53.242;6.386;2023-03-12T15:44:51;33.80;;;4.63;;
51578;SDS011;47998;53.242;6.386;2023-03-12T15:47:26;27.13;;;5.20;;
51578;SDS011;47998;53.242;6.386;2023-03-12T15:49:55;22.60;;;5.05;;
51578;SDS011;47998;53.242;6.386;2023-03-12T15:52:40;31.48;;;6.90;;
51578;SDS011;47998;53.242;6.386;2023-03-12T15:55:33;31.55;;;7.30;;
51578;SDS011;47998;53.242;6.386;2023-03-12T15:58:00;35.05;;;4.57;;
51578;SDS011;47998;53.242;6.386;2023-03-12T16:00:28;41.00;;;5.82;;
51578;SDS011;47998;53.242;6.386;2023-03-12T16:02:59;28.88;;;5.32;;
51578;SDS011;47998;53.242;6.386;2023-03-12T16:05:36;29.40;;;5.55;;
51578;SDS011;47998;53.242;6.386;2023-03-12T16:10:50;36.47;;;6.22;;
51578;SDS011;47998;53.242;6.386;2023-03-12T16:13:22;31.10;;;6.35;;
51578;SDS011;47998;53.242;6.386;2023-03-12T16:15:52;24.40;;;6.22;;
51578;SDS011;47998;53.242;6.386;2023-03-12T16:18:19;19.35;;;5.18;;
51578;SDS011;47998;53.242;6.386;2023-03-12T16:20:46;28.55;;;5.40;;
51578;SDS011;47998;53.242;6.386;2023-03-12T16:23:14;33.40;;;6.00;;
51578;SDS011;47998;53.242;6.386;2023-03-12T16:25:47;28.67;;;5.30;;
51578;SDS011;47998;53.242;6.386;2023-03-12T16:28:16;34.05;;;6.55;;
51578;SDS011;47998;53.242;6.386;2023-03-12T16:30:44;32.95;;;6.63;;
51578;SDS011;47998;53.242;6.386;2023-03-12T16:33:13;27.52;;;5.40;;
51578;SDS011;47998;53.242;6.386;2023-03-12T16:35:41;39.90;;;6.35;;
51578;SDS011;47998;53.242;6.386;2023-03-12T16:38:07;30.45;;;5.85;;
51578;SDS011;47998;53.242;6.386;2023-03-12T16:40:34;42.22;;;7.25;;
51578;SDS011;47998;53.242;6.386;2023-03-12T16:43:02;19.52;;;5.20;;
51578;SDS011;47998;53.242;6.386;2023-03-12T16:45:33;34.10;;;6.55;;
51578;SDS011;47998;53.242;6.386;2023-03-12T16:48:01;35.20;;;6.13;;
51578;SDS011;47998;53.242;6.386;2023-03-12T16:50:29;39.65;;;6.03;;
51578;SDS011;47998;53.242;6.386;2023-03-12T16:52:55;30.02;;;6.53;;
51578;SDS011;47998;53.242;6.386;2023-03-12T16:55:24;42.33;;;7.68;;
51578;SDS011;47998;53.242;6.386;2023-03-12T16:57:55;31.35;;;6.03;;
51578;SDS011;47998;53.242;6.386;2023-03-12T17:00:24;44.83;;;9.82;;
51578;SDS011;47998;53.242;6.386;2023-03-12T17:02:53;47.45;;;7.28;;
51578;SDS011;47998;53.242;6.386;2023-03-12T17:05:25;40.92;;;7.43;;